sensor_id;sensor_type;location;lat;lon;timestamp;pressure;altitude;pressure_sealevel;temperature;humidity
71559;BME280;59382;43.852;25.952;2024-03-29T00:00:40;100753.16;;;17.29;47.54
71559;BME280;59382;43.852;25.952;2024-03-29T00:03:07;100765.41;;;17.27;47.46
71559;BME280;59382;43.852;25.952;2024-03-29T00:05:33;100743.72;;;17.15;47.56
71559;BME280;59382;43.852;25.952;2024-03-29T00:07:59;100778.72;;;17.23;47.66
71559;BME280;59382;43.852;25.952;2024-03-29T00:10:25;100771.53;;;17.17;47.74
71559;BME280;59382;43.852;25.952;2024-03-29T00:12:50;100770.41;;;17.13;47.50
71559;BME280;59382;43.852;25.952;2024-03-29T00:15:16;100755.47;;;16.99;47.85
71559;BME280;59382;43.852;25.952;2024-03-29T00:17:42;100765.75;;;16.92;47.85
71559;BME280;59382;43.852;25.952;2024-03-29T00:20:08;100766.84;;;16.91;48.08
71559;BME280;59382;43.852;25.952;2024-03-29T00:22:34;100783.75;;;16.93;48.21
71559;BME280;59382;43.852;25.952;2024-03-29T00:24:59;100791.91;;;16.93;48.06
71559;BME280;59382;43.852;25.952;2024-03-29T00:27:25;100798.97;;;16.89;48.07
71559;BME280;59382;43.852;25.952;2024-03-29T00:29:52;100803.28;;;16.85;48.08
71559;BME280;59382;43.852;25.952;2024-03-29T00:32:21;100799.72;;;16.85;48.32
71559;BME280;59382;43.852;25.952;2024-03-29T00:34:50;100788.06;;;16.73;48.32
71559;BME280;59382;43.852;25.952;2024-03-29T00:37:16;100789.00;;;16.78;48.05
71559;BME280;59382;43.852;25.952;2024-03-29T00:39:41;100790.63;;;16.79;48.14
71559;BME280;59382;43.852;25.952;2024-03-29T00:42:07;100793.28;;;16.74;48.50
71559;BME280;59382;43.852;25.952;2024-03-29T00:44:36;100786.19;;;16.73;48.09
71559;BME280;59382;43.852;25.952;2024-03-29T00:47:04;100793.72;;;16.66;48.32
71559;BME280;59382;43.852;25.952;2024-03-29T00:49:29;100782.56;;;16.51;48.29
71559;BME280;59382;43.852;25.952;2024-03-29T00:51:55;100793.38;;;16.46;48.41
71559;BME280;59382;43.852;25.952;2024-03-29T00:54:21;100783.88;;;16.32;48.58
71559;BME280;59382;43.852;25.952;2024-03-29T00:56:49;100797.16;;;16.29;48.63
71559;BME280;59382;43.852;25.952;2024-03-29T00:59:14;100794.78;;;16.04;48.98
71559;BME280;59382;43.852;25.952;2024-03-29T01:01:40;100781.81;;;15.78;49.45
71559;BME280;59382;43.852;25.952;2024-03-29T01:04:05;100795.78;;;15.70;49.73
71559;BME280;59382;43.852;25.952;2024-03-29T01:06:31;100785.06;;;15.63;49.70
71559;BME280;59382;43.852;25.952;2024-03-29T01:08:57;100812.59;;;15.67;49.72
71559;BME280;59382;43.852;25.952;2024-03-29T01:11:22;100808.59;;;15.58;49.82
71559;BME280;59382;43.852;25.952;2024-03-29T01:13:48;100814.69;;;15.48;50.00
71559;BME280;59382;43.852;25.952;2024-03-29T01:16:13;100809.84;;;15.39;50.07
71559;BME280;59382;43.852;25.952;2024-03-29T01:18:39;100810.28;;;15.36;49.99
71559;BME280;59382;43.852;25.952;2024-03-29T01:21:05;100820.16;;;15.37;50.17
71559;BME280;59382;43.852;25.952;2024-03-29T01:23:31;100814.84;;;15.19;50.30
71559;BME280;59382;43.852;25.952;2024-03-29T01:25:56;100844.34;;;15.27;50.38
71559;BME280;59382;43.852;25.952;2024-03-29T01:28:22;100833.16;;;15.23;50.33
71559;BME280;59382;43.852;25.952;2024-03-29T01:30:56;100847.06;;;15.27;50.52
71559;BME280;59382;43.852;25.952;2024-03-29T01:33:24;100854.50;;;15.31;50.26
71559;BME280;59382;43.852;25.952;2024-03-29T01:35:53;100842.22;;;15.29;50.21
71559;BME280;59382;43.852;25.952;2024-03-29T01:38:18;100848.84;;;15.44;49.93
71559;BME280;59382;43.852;25.952;2024-03-29T01:40:44;100864.06;;;15.57;49.88
71559;BME280;59382;43.852;25.952;2024-03-29T01:43:10;100859.22;;;15.59;49.77
71559;BME280;59382;43.852;25.952;2024-03-29T01:45:38;100874.22;;;15.61;49.69
71559;BME280;59382;43.852;25.952;2024-03-29T01:48:08;100886.56;;;15.52;49.74
71559;BME280;59382;43.852;25.952;2024-03-29T01:50:34;100888.13;;;15.37;50.12
71559;BME280;59382;43.852;25.952;2024-03-29T01:53:01;100889.38;;;15.46;50.18
71559;BME280;59382;43.852;25.952;2024-03-29T01:55:27;100879.22;;;15.41;50.46
71559;BME280;59382;43.852;25.952;2024-03-29T01:57:53;100891.41;;;15.39;50.45
71559;BME280;59382;43.852;25.952;2024-03-29T02:00:21;100884.78;;;15.35;50.56
71559;BME280;59382;43.852;25.952;2024-03-29T02:02:57;100913.38;;;15.49;50.59
71559;BME280;59382;43.852;25.952;2024-03-29T02:05:32;100919.56;;;15.56;50.54
71559;BME280;59382;43.852;25.952;2024-03-29T02:08:04;100906.88;;;15.61;50.37
71559;BME280;59382;43.852;25.952;2024-03-29T02:10:41;100916.59;;;15.57;50.60
71559;BME280;59382;43.852;25.952;2024-03-29T02:13:19;100904.66;;;15.47;50.45
71559;BME280;59382;43.852;25.952;2024-03-29T02:16:04;100883.50;;;15.37;50.58
71559;BME280;59382;43.852;25.952;2024-03-29T02:18:32;100903.72;;;15.53;50.51
71559;BME280;59382;43.852;25.952;2024-03-29T02:20:58;100898.97;;;15.60;50.44
71559;BME280;59382;43.852;25.952;2024-03-29T02:23:27;100898.00;;;15.66;50.23
71559;BME280;59382;43.852;25.952;2024-03-29T02:25:55;100888.28;;;15.70;50.03
71559;BME280;59382;43.852;25.952;2024-03-29T02:28:23;100900.13;;;15.76;49.90
71559;BME280;59382;43.852;25.952;2024-03-29T02:30:52;100893.59;;;15.77;49.85
71559;BME280;59382;43.852;25.952;2024-03-29T02:33:18;100901.03;;;15.81;49.75
71559;BME280;59382;43.852;25.952;2024-03-29T02:35:43;100887.69;;;15.80;49.83
71559;BME280;59382;43.852;25.952;2024-03-29T02:38:09;100883.06;;;15.80;49.74
71559;BME280;59382;43.852;25.952;2024-03-29T02:40:34;100901.25;;;15.91;49.58
71559;BME280;59382;43.852;25.952;2024-03-29T02:43:00;100899.13;;;15.93;49.51
71559;BME280;59382;43.852;25.952;2024-03-29T02:45:26;100903.59;;;15.99;49.49
71559;BME280;59382;43.852;25.952;2024-03-29T02:47:51;100914.31;;;16.06;49.40
71559;BME280;59382;43.852;25.952;2024-03-29T02:50:17;100896.63;;;15.92;49.32
71559;BME280;59382;43.852;25.952;2024-03-29T02:52:43;100914.00;;;16.02;49.37
71559;BME280;59382;43.852;25.952;2024-03-29T02:55:08;100921.81;;;15.99;49.47
71559;BME280;59382;43.852;25.952;2024-03-29T02:57:38;100881.69;;;15.66;49.64
71559;BME280;59382;43.852;25.952;2024-03-29T03:00:07;100941.22;;;15.91;49.69
71559;BME280;59382;43.852;25.952;2024-03-29T03:02:40;100946.81;;;15.84;49.86
71559;BME280;59382;43.852;25.952;2024-03-29T03:05:08;100942.38;;;15.66;49.97
71559;BME280;59382;43.852;25.952;2024-03-29T03:07:34;100953.34;;;15.60;50.10
71559;BME280;59382;43.852;25.952;2024-03-29T03:10:18;100936.94;;;15.43;50.25
71559;BME280;59382;43.852;25.952;2024-03-29T03:13:02;100943.22;;;15.44;50.38
71559;BME280;59382;43.852;25.952;2024-03-29T03:15:28;100953.47;;;15.53;50.40
71559;BME280;59382;43.852;25.952;2024-03-29T03:17:54;100955.47;;;15.58;50.31
71559;BME280;59382;43.852;25.952;2024-03-29T03:20:19;100950.41;;;15.50;50.10
71559;BME280;59382;43.852;25.952;2024-03-29T03:22:45;100955.63;;;15.51;50.33
71559;BME280;59382;43.852;25.952;2024-03-29T03:25:13;100970.63;;;15.54;50.08
71559;BME280;59382;43.852;25.952;2024-03-29T03:27:39;100963.19;;;15.38;50.15
71559;BME280;59382;43.852;25.952;2024-03-29T03:30:05;100973.06;;;15.21;50.25
71559;BME280;59382;43.852;25.952;2024-03-29T03:32:34;100989.00;;;15.06;50.64
71559;BME280;59382;43.852;25.952;2024-03-29T03:35:11;100987.81;;;15.02;50.78
71559;BME280;59382;43.852;25.952;2024-03-29T03:41:12;100999.09;;;14.76;50.97
71559;BME280;59382;43.852;25.952;2024-03-29T03:43:40;100981.81;;;14.59;51.10
71559;BME280;59382;43.852;25.952;2024-03-29T03:46:29;101009.22;;;14.69;51.40
71559;BME280;59382;43.852;25.952;2024-03-29T03:48:57;100996.53;;;14.51;51.28
71559;BME280;59382;43.852;25.952;2024-03-29T03:51:25;101018.16;;;14.58;51.12
71559;BME280;59382;43.852;25.952;2024-03-29T03:53:57;101001.47;;;14.25;51.56
71559;BME280;59382;43.852;25.952;2024-03-29T03:56:43;101020.00;;;14.10;51.63
71559;BME280;59382;43.852;25.952;2024-03-29T03:59:23;101024.06;;;14.01;52.08
71559;BME280;59382;43.852;25.952;2024-03-29T04:02:07;101041.88;;;13.97;52.21
71559;BME280;59382;43.852;25.952;2024-03-29T04:04:32;101055.28;;;13.92;52.49
71559;BME280;59382;43.852;25.952;2024-03-29T04:07:10;101052.41;;;13.87;52.84
71559;BME280;59382;43.852;25.952;2024-03-29T04:09:41;101038.28;;;13.78;53.03
71559;BME280;59382;43.852;25.952;2024-03-29T04:12:09;101054.69;;;13.90;52.84
71559;BME280;59382;43.852;25.952;2024-03-29T04:15:04;101062.22;;;14.06;52.92
71559;BME280;59382;43.852;25.952;2024-03-29T04:17:56;101067.03;;;14.22;52.53
71559;BME280;59382;43.852;25.952;2024-03-29T04:20:37;101075.66;;;14.37;52.05
71559;BME280;59382;43.852;25.952;2024-03-29T04:23:08;101070.19;;;14.43;51.84
71559;BME280;59382;43.852;25.952;2024-03-29T04:25:34;101079.56;;;14.59;51.78
71559;BME280;59382;43.852;25.952;2024-03-29T04:28:03;101068.25;;;14.62;51.54
71559;BME280;59382;43.852;25.952;2024-03-29T04:30:28;101076.09;;;14.70;51.30
71559;BME280;59382;43.852;25.952;2024-03-29T04:32:54;101093.38;;;14.87;51.51
71559;BME280;59382;43.852;25.952;2024-03-29T04:35:22;101090.94;;;14.97;51.26
71559;BME280;59382;43.852;25.952;2024-03-29T04:37:48;101090.25;;;15.01;51.16
71559;BME280;59382;43.852;25.952;2024-03-29T04:40:14;101084.00;;;15.01;51.11
71559;BME280;59382;43.852;25.952;2024-03-29T04:42:39;101102.69;;;15.09;51.20
71559;BME280;59382;43.852;25.952;2024-03-29T04:45:05;101097.63;;;15.12;51.13
71559;BME280;59382;43.852;25.952;2024-03-29T04:47:31;101107.94;;;15.22;50.91
71559;BME280;59382;43.852;25.952;2024-03-29T04:49:56;101109.84;;;15.33;50.66
71559;BME280;59382;43.852;25.952;2024-03-29T04:52:22;101121.50;;;15.40;50.85
71559;BME280;59382;43.852;25.952;2024-03-29T04:54:49;101123.88;;;15.48;50.88
71559;BME280;59382;43.852;25.952;2024-03-29T04:57:15;101126.63;;;15.59;50.70
71559;BME280;59382;43.852;25.952;2024-03-29T04:59:40;101118.69;;;15.58;50.33
71559;BME280;59382;43.852;25.952;2024-03-29T05:02:06;101142.28;;;15.76;50.33
71559;BME280;59382;43.852;25.952;2024-03-29T05:04:32;101131.25;;;15.70;50.22
71559;BME280;59382;43.852;25.952;2024-03-29T05:06:58;101141.66;;;15.85;50.05
71559;BME280;59382;43.852;25.952;2024-03-29T05:09:24;101146.19;;;15.91;50.04
71559;BME280;59382;43.852;25.952;2024-03-29T05:11:50;101152.09;;;16.00;49.85
71559;BME280;59382;43.852;25.952;2024-03-29T05:14:21;101151.53;;;15.98;49.81
71559;BME280;59382;43.852;25.952;2024-03-29T05:16:48;101164.19;;;16.15;49.79
71559;BME280;59382;43.852;25.952;2024-03-29T05:19:15;101149.97;;;16.36;49.80
71559;BME280;59382;43.852;25.952;2024-03-29T05:21:41;101161.84;;;16.81;49.54
71559;BME280;59382;43.852;25.952;2024-03-29T05:24:08;101166.88;;;17.12;49.08
71559;BME280;59382;43.852;25.952;2024-03-29T05:26:33;101155.72;;;17.30;48.92
71559;BME280;59382;43.852;25.952;2024-03-29T05:28:59;101168.31;;;17.59;49.34
71559;BME280;59382;43.852;25.952;2024-03-29T05:31:26;101155.94;;;17.85;48.88
71559;BME280;59382;43.852;25.952;2024-03-29T05:33:53;101159.56;;;17.91;48.56
71559;BME280;59382;43.852;25.952;2024-03-29T05:36:19;101160.41;;;18.08;48.36
71559;BME280;59382;43.852;25.952;2024-03-29T05:38:45;101170.16;;;18.04;48.33
71559;BME280;59382;43.852;25.952;2024-03-29T05:41:11;101157.97;;;17.95;48.33
71559;BME280;59382;43.852;25.952;2024-03-29T05:43:38;101169.09;;;18.05;48.68
71559;BME280;59382;43.852;25.952;2024-03-29T05:46:05;101168.78;;;18.23;48.75
71559;BME280;59382;43.852;25.952;2024-03-29T05:48:31;101156.56;;;18.42;48.36
71559;BME280;59382;43.852;25.952;2024-03-29T05:50:56;101159.00;;;18.60;47.66
71559;BME280;59382;43.852;25.952;2024-03-29T05:53:22;101154.03;;;18.57;47.34
71559;BME280;59382;43.852;25.952;2024-03-29T05:55:47;101178.47;;;18.85;48.51
71559;BME280;59382;43.852;25.952;2024-03-29T05:58:13;101177.97;;;19.36;48.44
71559;BME280;59382;43.852;25.952;2024-03-29T06:00:43;101151.63;;;19.83;47.86
71559;BME280;59382;43.852;25.952;2024-03-29T06:03:09;101168.72;;;20.32;47.17
71559;BME280;59382;43.852;25.952;2024-03-29T06:05:35;101157.63;;;20.58;46.73
71559;BME280;59382;43.852;25.952;2024-03-29T06:08:00;101170.38;;;20.84;46.34
71559;BME280;59382;43.852;25.952;2024-03-29T06:10:26;101168.22;;;20.91;44.78
71559;BME280;59382;43.852;25.952;2024-03-29T06:12:51;101163.16;;;20.68;44.54
71559;BME280;59382;43.852;25.952;2024-03-29T06:15:17;101170.84;;;20.71;44.43
71559;BME280;59382;43.852;25.952;2024-03-29T06:18:01;101170.06;;;20.76;44.13
71559;BME280;59382;43.852;25.952;2024-03-29T06:20:27;101172.59;;;20.87;43.95
71559;BME280;59382;43.852;25.952;2024-03-29T06:22:53;101185.22;;;20.88;43.19
71559;BME280;59382;43.852;25.952;2024-03-29T06:25:18;101167.06;;;20.82;43.41
71559;BME280;59382;43.852;25.952;2024-03-29T06:27:44;101186.94;;;20.99;43.09
71559;BME280;59382;43.852;25.952;2024-03-29T06:30:13;101184.75;;;21.01;42.89
71559;BME280;59382;43.852;25.952;2024-03-29T06:32:40;101176.38;;;20.76;42.57
71559;BME280;59382;43.852;25.952;2024-03-29T06:35:06;101165.75;;;20.43;42.57
71559;BME280;59382;43.852;25.952;2024-03-29T06:37:32;101195.69;;;20.50;42.79
71559;BME280;59382;43.852;25.952;2024-03-29T06:39:57;101194.22;;;20.37;42.31
71559;BME280;59382;43.852;25.952;2024-03-29T06:42:23;101192.53;;;20.26;42.74
71559;BME280;59382;43.852;25.952;2024-03-29T06:44:49;101199.09;;;20.25;42.83
71559;BME280;59382;43.852;25.952;2024-03-29T06:47:18;101197.53;;;20.39;42.58
71559;BME280;59382;43.852;25.952;2024-03-29T06:49:43;101182.69;;;20.30;42.70
71559;BME280;59382;43.852;25.952;2024-03-29T06:52:09;101179.72;;;20.42;42.97
71559;BME280;59382;43.852;25.952;2024-03-29T06:54:35;101182.91;;;20.70;42.62
71559;BME280;59382;43.852;25.952;2024-03-29T06:57:01;101188.44;;;20.80;42.35
71559;BME280;59382;43.852;25.952;2024-03-29T06:59:28;101175.25;;;20.72;42.36
71559;BME280;59382;43.852;25.952;2024-03-29T07:01:57;101198.47;;;21.11;42.17
71559;BME280;59382;43.852;25.952;2024-03-29T07:04:23;101197.22;;;21.39;42.04
71559;BME280;59382;43.852;25.952;2024-03-29T07:06:49;101190.38;;;21.47;41.41
71559;BME280;59382;43.852;25.952;2024-03-29T07:09:22;101206.88;;;21.72;40.91
71559;BME280;59382;43.852;25.952;2024-03-29T07:11:49;101186.56;;;21.73;40.69
71559;BME280;59382;43.852;25.952;2024-03-29T07:14:15;101203.63;;;21.95;40.53
71559;BME280;59382;43.852;25.952;2024-03-29T07:16:45;101208.56;;;22.13;40.28
71559;BME280;59382;43.852;25.952;2024-03-29T07:19:11;101206.94;;;22.32;39.86
71559;BME280;59382;43.852;25.952;2024-03-29T07:21:45;101192.34;;;22.26;39.55
71559;BME280;59382;43.852;25.952;2024-03-29T07:24:12;101198.09;;;22.40;39.69
71559;BME280;59382;43.852;25.952;2024-03-29T07:26:38;101183.28;;;22.51;39.26
71559;BME280;59382;43.852;25.952;2024-03-29T07:29:05;101193.66;;;22.74;39.11
71559;BME280;59382;43.852;25.952;2024-03-29T07:31:32;101191.38;;;22.96;38.74
71559;BME280;59382;43.852;25.952;2024-03-29T07:33:59;101188.00;;;23.14;38.51
71559;BME280;59382;43.852;25.952;2024-03-29T07:36:24;101185.75;;;23.31;38.21
71559;BME280;59382;43.852;25.952;2024-03-29T07:38:52;101190.59;;;23.49;37.85
71559;BME280;59382;43.852;25.952;2024-03-29T07:41:17;101185.31;;;23.53;38.09
71559;BME280;59382;43.852;25.952;2024-03-29T07:43:54;101175.69;;;23.55;36.74
71559;BME280;59382;43.852;25.952;2024-03-29T07:46:23;101191.94;;;23.57;37.02
71559;BME280;59382;43.852;25.952;2024-03-29T07:48:50;101189.69;;;23.59;37.13
71559;BME280;59382;43.852;25.952;2024-03-29T07:51:16;101148.81;;;23.37;36.63
71559;BME280;59382;43.852;25.952;2024-03-29T07:53:42;101178.16;;;23.52;36.12
71559;BME280;59382;43.852;25.952;2024-03-29T07:56:08;101188.88;;;23.58;36.38
71559;BME280;59382;43.852;25.952;2024-03-29T07:58:33;101192.16;;;23.60;36.17
71559;BME280;59382;43.852;25.952;2024-03-29T08:00:59;101195.38;;;23.72;35.96
71559;BME280;59382;43.852;25.952;2024-03-29T08:03:24;101194.81;;;23.75;35.73
71559;BME280;59382;43.852;25.952;2024-03-29T08:08:25;101194.81;;;23.75;35.63
71559;BME280;59382;43.852;25.952;2024-03-29T08:10:55;101186.50;;;23.80;35.86
71559;BME280;59382;43.852;25.952;2024-03-29T08:13:21;101199.66;;;23.88;35.55
71559;BME280;59382;43.852;25.952;2024-03-29T08:15:48;101209.31;;;23.91;35.68
71559;BME280;59382;43.852;25.952;2024-03-29T08:18:13;101191.00;;;23.66;35.48
71559;BME280;59382;43.852;25.952;2024-03-29T08:20:39;101207.34;;;23.58;35.92
71559;BME280;59382;43.852;25.952;2024-03-29T08:23:05;101193.88;;;23.51;36.08
71559;BME280;59382;43.852;25.952;2024-03-29T08:25:31;101191.09;;;23.56;36.31
71559;BME280;59382;43.852;25.952;2024-03-29T08:27:57;101192.69;;;23.62;36.02
71559;BME280;59382;43.852;25.952;2024-03-29T08:30:25;101198.69;;;23.74;36.08
71559;BME280;59382;43.852;25.952;2024-03-29T08:32:51;101188.22;;;23.71;35.90
71559;BME280;59382;43.852;25.952;2024-03-29T08:35:18;101186.66;;;23.60;35.73
71559;BME280;59382;43.852;25.952;2024-03-29T08:37:45;101180.16;;;23.46;35.67
71559;BME280;59382;43.852;25.952;2024-03-29T08:40:11;101209.31;;;23.52;35.77
71559;BME280;59382;43.852;25.952;2024-03-29T08:42:37;101207.91;;;23.55;35.76
71559;BME280;59382;43.852;25.952;2024-03-29T08:45:03;101206.84;;;23.46;35.83
71559;BME280;59382;43.852;25.952;2024-03-29T08:47:31;101220.06;;;23.44;35.89
71559;BME280;59382;43.852;25.952;2024-03-29T08:49:57;101214.34;;;23.40;35.75
71559;BME280;59382;43.852;25.952;2024-03-29T08:52:22;101212.66;;;23.39;36.06
71559;BME280;59382;43.852;25.952;2024-03-29T08:54:48;101200.56;;;23.35;36.02
71559;BME280;59382;43.852;25.952;2024-03-29T08:57:13;101207.16;;;23.39;36.30
71559;BME280;59382;43.852;25.952;2024-03-29T08:59:39;101206.59;;;23.42;35.96
71559;BME280;59382;43.852;25.952;2024-03-29T09:02:06;101202.75;;;23.43;35.82
71559;BME280;59382;43.852;25.952;2024-03-29T09:04:32;101196.44;;;23.38;35.86
71559;BME280;59382;43.852;25.952;2024-03-29T09:07:02;101207.16;;;23.39;35.65
71559;BME280;59382;43.852;25.952;2024-03-29T09:09:31;101218.47;;;23.38;35.69
71559;BME280;59382;43.852;25.952;2024-03-29T09:11:57;101225.09;;;23.37;35.74
71559;BME280;59382;43.852;25.952;2024-03-29T09:14:23;101228.06;;;23.45;35.59
71559;BME280;59382;43.852;25.952;2024-03-29T09:16:50;101235.22;;;23.46;35.46
71559;BME280;59382;43.852;25.952;2024-03-29T09:19:15;101217.03;;;23.45;35.55
71559;BME280;59382;43.852;25.952;2024-03-29T09:21:41;101216.16;;;23.55;36.03
71559;BME280;59382;43.852;25.952;2024-03-29T09:24:07;101208.75;;;23.55;35.55
71559;BME280;59382;43.852;25.952;2024-03-29T09:26:33;101206.47;;;23.62;35.62
71559;BME280;59382;43.852;25.952;2024-03-29T09:28:59;101215.88;;;23.61;35.14
71559;BME280;59382;43.852;25.952;2024-03-29T09:31:24;101207.63;;;23.56;35.40
71559;BME280;59382;43.852;25.952;2024-03-29T09:33:50;101203.19;;;23.60;35.20
71559;BME280;59382;43.852;25.952;2024-03-29T09:36:22;101201.00;;;23.57;35.16
71559;BME280;59382;43.852;25.952;2024-03-29T09:38:52;101180.94;;;23.47;35.11
71559;BME280;59382;43.852;25.952;2024-03-29T09:41:19;101193.91;;;23.46;35.05
71559;BME280;59382;43.852;25.952;2024-03-29T09:43:46;101198.88;;;23.44;35.24
71559;BME280;59382;43.852;25.952;2024-03-29T09:46:16;101177.91;;;23.48;34.96
71559;BME280;59382;43.852;25.952;2024-03-29T09:48:43;101176.84;;;23.44;35.45
71559;BME280;59382;43.852;25.952;2024-03-29T09:51:11;101183.47;;;23.43;35.25
71559;BME280;59382;43.852;25.952;2024-03-29T09:53:41;101189.50;;;23.45;35.35
71559;BME280;59382;43.852;25.952;2024-03-29T09:56:08;101170.25;;;23.40;35.25
71559;BME280;59382;43.852;25.952;2024-03-29T09:58:35;101162.59;;;23.32;35.45
71559;BME280;59382;43.852;25.952;2024-03-29T10:01:03;101182.91;;;23.41;36.06
71559;BME280;59382;43.852;25.952;2024-03-29T10:03:35;101167.00;;;23.33;35.69
71559;BME280;59382;43.852;25.952;2024-03-29T10:06:02;101176.34;;;23.37;36.21
71559;BME280;59382;43.852;25.952;2024-03-29T10:08:29;101179.09;;;23.37;36.05
71559;BME280;59382;43.852;25.952;2024-03-29T10:10:56;101162.03;;;23.35;36.45
71559;BME280;59382;43.852;25.952;2024-03-29T10:13:22;101179.31;;;23.46;36.39
71559;BME280;59382;43.852;25.952;2024-03-29T10:15:55;101190.03;;;23.52;36.25
71559;BME280;59382;43.852;25.952;2024-03-29T10:18:26;101188.91;;;23.53;35.84
71559;BME280;59382;43.852;25.952;2024-03-29T10:21:08;101191.94;;;23.57;35.62
71559;BME280;59382;43.852;25.952;2024-03-29T10:23:34;101191.59;;;23.63;35.43
71559;BME280;59382;43.852;25.952;2024-03-29T10:26:03;101178.91;;;23.67;35.31
71559;BME280;59382;43.852;25.952;2024-03-29T10:28:33;101188.22;;;23.71;34.83
71559;BME280;59382;43.852;25.952;2024-03-29T10:31:00;101175.00;;;23.73;34.88
71559;BME280;59382;43.852;25.952;2024-03-29T10:33:29;101173.84;;;23.79;34.89
71559;BME280;59382;43.852;25.952;2024-03-29T10:36:02;101168.91;;;23.76;34.76
71559;BME280;59382;43.852;25.952;2024-03-29T10:38:31;101157.31;;;23.79;34.91
71559;BME280;59382;43.852;25.952;2024-03-29T10:40:57;101171.09;;;23.79;34.63
71559;BME280;59382;43.852;25.952;2024-03-29T10:43:24;101151.06;;;23.69;34.62
71559;BME280;59382;43.852;25.952;2024-03-29T10:45:50;101156.28;;;23.70;34.28
71559;BME280;59382;43.852;25.952;2024-03-29T10:48:25;101162.41;;;23.62;34.14
71559;BME280;59382;43.852;25.952;2024-03-29T10:50:53;101174.47;;;23.66;34.31
71559;BME280;59382;43.852;25.952;2024-03-29T10:53:19;101179.75;;;23.63;34.25
71559;BME280;59382;43.852;25.952;2024-03-29T10:55:47;101178.94;;;23.62;34.11
71559;BME280;59382;43.852;25.952;2024-03-29T10:58:16;101153.09;;;23.53;33.85
71559;BME280;59382;43.852;25.952;2024-03-29T11:00:48;101160.75;;;23.61;33.70
71559;BME280;59382;43.852;25.952;2024-03-29T11:03:20;101157.44;;;23.64;33.27
71559;BME280;59382;43.852;25.952;2024-03-29T11:05:50;101165.69;;;23.64;33.42
71559;BME280;59382;43.852;25.952;2024-03-29T11:08:20;101151.94;;;23.59;32.95
71559;BME280;59382;43.852;25.952;2024-03-29T11:10:48;101148.06;;;23.60;33.26
71559;BME280;59382;43.852;25.952;2024-03-29T11:15:52;101161.56;;;23.62;33.23
71559;BME280;59382;43.852;25.952;2024-03-29T11:18:19;101158.00;;;23.61;33.07
71559;BME280;59382;43.852;25.952;2024-03-29T11:20:46;101153.06;;;23.58;33.13
71559;BME280;59382;43.852;25.952;2024-03-29T11:23:17;101158.59;;;23.53;33.21
71559;BME280;59382;43.852;25.952;2024-03-29T11:25:45;101148.41;;;23.54;33.26
71559;BME280;59382;43.852;25.952;2024-03-29T11:28:14;101151.47;;;23.52;33.21
71559;BME280;59382;43.852;25.952;2024-03-29T11:30:47;101161.34;;;23.58;33.08
71559;BME280;59382;43.852;25.952;2024-03-29T11:35:58;101162.97;;;23.59;33.31
71559;BME280;59382;43.852;25.952;2024-03-29T11:38:34;101176.72;;;23.64;33.31
71559;BME280;59382;43.852;25.952;2024-03-29T11:41:01;101167.34;;;23.65;33.41
71559;BME280;59382;43.852;25.952;2024-03-29T11:43:29;101153.06;;;23.58;33.25
71559;BME280;59382;43.852;25.952;2024-03-29T11:45:57;101161.25;;;23.68;33.67
71559;BME280;59382;43.852;25.952;2024-03-29T11:48:25;101153.00;;;23.63;33.43
71559;BME280;59382;43.852;25.952;2024-03-29T11:50:52;101156.31;;;23.65;33.21
71559;BME280;59382;43.852;25.952;2024-03-29T11:53:19;101151.88;;;23.69;33.53
71559;BME280;59382;43.852;25.952;2024-03-29T11:55:45;101153.53;;;23.70;33.28
71559;BME280;59382;43.852;25.952;2024-03-29T11:58:10;101145.88;;;23.62;32.75
71559;BME280;59382;43.852;25.952;2024-03-29T12:00:38;101139.28;;;23.58;32.64
71559;BME280;59382;43.852;25.952;2024-03-29T12:03:05;101160.69;;;23.71;33.04
71559;BME280;59382;43.852;25.952;2024-03-29T12:05:30;101144.16;;;23.71;32.86
71559;BME280;59382;43.852;25.952;2024-03-29T12:07:57;101140.81;;;23.74;32.96
71559;BME280;59382;43.852;25.952;2024-03-29T12:10:30;101140.53;;;23.76;32.45
71559;BME280;59382;43.852;25.952;2024-03-29T12:12:59;101155.66;;;23.78;33.07
71559;BME280;59382;43.852;25.952;2024-03-29T12:15:28;101137.50;;;23.72;32.91
71559;BME280;59382;43.852;25.952;2024-03-29T12:18:04;101125.97;;;23.70;32.69
71559;BME280;59382;43.852;25.952;2024-03-29T12:20:32;101155.66;;;23.78;33.16
71559;BME280;59382;43.852;25.952;2024-03-29T12:22:59;101144.06;;;23.81;33.13
71559;BME280;59382;43.852;25.952;2024-03-29T12:25:27;101138.06;;;23.74;32.85
71559;BME280;59382;43.852;25.952;2024-03-29T12:27:59;101151.81;;;23.79;32.90
71559;BME280;59382;43.852;25.952;2024-03-29T12:30:27;101140.25;;;23.77;32.82
71559;BME280;59382;43.852;25.952;2024-03-29T12:33:04;101131.97;;;23.77;32.52
71559;BME280;59382;43.852;25.952;2024-03-29T12:35:32;101126.19;;;23.74;33.06
71559;BME280;59382;43.852;25.952;2024-03-29T12:38:03;101130.06;;;23.73;32.43
71559;BME280;59382;43.852;25.952;2024-03-29T12:40:31;101139.66;;;23.80;32.57
71559;BME280;59382;43.852;25.952;2024-03-29T12:43:05;101141.94;;;23.73;32.69
71559;BME280;59382;43.852;25.952;2024-03-29T12:45:31;101146.31;;;23.74;32.92
71559;BME280;59382;43.852;25.952;2024-03-29T12:47:57;101148.50;;;23.77;33.15
71559;BME280;59382;43.852;25.952;2024-03-29T12:50:31;101129.50;;;23.76;33.13
71559;BME280;59382;43.852;25.952;2024-03-29T12:53:05;101128.06;;;23.83;33.00
71559;BME280;59382;43.852;25.952;2024-03-29T12:55:31;101131.63;;;23.84;33.13